sensor_id;sensor_type;location;lat;lon;timestamp;P1;durP1;ratioP1;P2;durP2;ratioP2
28523;SDS011;15734;50.904;6.922;2022-07-29T00:01:31;3.50;;;1.50;;
28523;SDS011;15734;50.904;6.922;2022-07-29T00:03:57;4.38;;;1.80;;
28523;SDS011;15734;50.904;6.922;2022-07-29T00:06:23;8.10;;;1.90;;
28523;SDS011;15734;50.904;6.922;2022-07-29T00:08:49;5.78;;;2.00;;
28523;SDS011;15734;50.904;6.922;2022-07-29T00:11:14;10.60;;;3.28;;
28523;SDS011;15734;50.904;6.922;2022-07-29T00:13:40;6.85;;;2.90;;
28523;SDS011;15734;50.904;6.922;2022-07-29T00:16:05;7.38;;;2.53;;
28523;SDS011;15734;50.904;6.922;2022-07-29T00:18:31;5.22;;;2.28;;
28523;SDS011;15734;50.904;6.922;2022-07-29T00:20:57;6.88;;;2.00;;
28523;SDS011;15734;50.904;6.922;2022-07-29T00:23:22;5.07;;;1.98;;
28523;SDS011;15734;50.904;6.922;2022-07-29T00:25:48;6.80;;;2.10;;
28523;SDS011;15734;50.904;6.922;2022-07-29T00:28:14;6.05;;;1.80;;
28523;SDS011;15734;50.904;6.922;2022-07-29T00:30:39;4.63;;;1.75;;
28523;SDS011;15734;50.904;6.922;2022-07-29T00:33:07;5.25;;;1.42;;
28523;SDS011;15734;50.904;6.922;2022-07-29T00:35:33;5.00;;;2.00;;
28523;SDS011;15734;50.904;6.922;2022-07-29T00:38:08;4.53;;;1.70;;
28523;SDS011;15734;50.904;6.922;2022-07-29T00:40:34;8.18;;;1.80;;
28523;SDS011;15734;50.904;6.922;2022-07-29T00:42:59;4.43;;;1.60;;
28523;SDS011;15734;50.904;6.922;2022-07-29T00:45:26;3.95;;;1.70;;
28523;SDS011;15734;50.904;6.922;2022-07-29T00:47:52;4.82;;;1.80;;
28523;SDS011;15734;50.904;6.922;2022-07-29T00:50:18;6.47;;;1.92;;
28523;SDS011;15734;50.904;6.922;2022-07-29T00:52:44;4.50;;;1.52;;
28523;SDS011;15734;50.904;6.922;2022-07-29T00:55:10;7.35;;;1.80;;
28523;SDS011;15734;50.904;6.922;2022-07-29T00:57:40;4.85;;;1.58;;
28523;SDS011;15734;50.904;6.922;2022-07-29T01:00:07;6.55;;;2.40;;
28523;SDS011;15734;50.904;6.922;2022-07-29T01:02:38;3.03;;;1.90;;
28523;SDS011;15734;50.904;6.922;2022-07-29T01:05:04;4.00;;;1.80;;
28523;SDS011;15734;50.904;6.922;2022-07-29T01:07:32;9.32;;;1.80;;
28523;SDS011;15734;50.904;6.922;2022-07-29T01:10:03;3.97;;;1.67;;
28523;SDS011;15734;50.904;6.922;2022-07-29T01:12:30;4.07;;;2.00;;
28523;SDS011;15734;50.904;6.922;2022-07-29T01:14:58;4.13;;;1.85;;
28523;SDS011;15734;50.904;6.922;2022-07-29T01:17:27;8.38;;;1.85;;
28523;SDS011;15734;50.904;6.922;2022-07-29T01:30:26;3.50;;;1.83;;
28523;SDS011;15734;50.904;6.922;2022-07-29T01:32:55;7.28;;;1.85;;
28523;SDS011;15734;50.904;6.922;2022-07-29T01:35:25;5.93;;;1.80;;
28523;SDS011;15734;50.904;6.922;2022-07-29T01:38:01;5.85;;;2.17;;
28523;SDS011;15734;50.904;6.922;2022-07-29T01:40:47;9.70;;;2.20;;
28523;SDS011;15734;50.904;6.922;2022-07-29T01:43:17;5.90;;;1.95;;
28523;SDS011;15734;50.904;6.922;2022-07-29T01:45:46;4.88;;;1.73;;
28523;SDS011;15734;50.904;6.922;2022-07-29T01:48:27;7.10;;;2.15;;
28523;SDS011;15734;50.904;6.922;2022-07-29T01:51:02;4.43;;;2.05;;
28523;SDS011;15734;50.904;6.922;2022-07-29T01:53:50;7.43;;;1.95;;
28523;SDS011;15734;50.904;6.922;2022-07-29T01:56:24;6.28;;;2.08;;
28523;SDS011;15734;50.904;6.922;2022-07-29T01:58:55;8.30;;;2.20;;
28523;SDS011;15734;50.904;6.922;2022-07-29T02:01:23;4.03;;;1.73;;
28523;SDS011;15734;50.904;6.922;2022-07-29T02:03:50;2.83;;;1.90;;
28523;SDS011;15734;50.904;6.922;2022-07-29T02:06:21;4.07;;;1.70;;
28523;SDS011;15734;50.904;6.922;2022-07-29T02:08:47;6.40;;;1.88;;
28523;SDS011;15734;50.904;6.922;2022-07-29T02:11:15;4.47;;;1.70;;
28523;SDS011;15734;50.904;6.922;2022-07-29T02:13:41;4.93;;;1.90;;
28523;SDS011;15734;50.904;6.922;2022-07-29T02:16:08;6.03;;;2.60;;
28523;SDS011;15734;50.904;6.922;2022-07-29T02:18:35;3.85;;;1.88;;
28523;SDS011;15734;50.904;6.922;2022-07-29T02:21:02;4.63;;;1.77;;
28523;SDS011;15734;50.904;6.922;2022-07-29T02:23:28;6.22;;;2.38;;
28523;SDS011;15734;50.904;6.922;2022-07-29T02:25:56;6.10;;;2.40;;
28523;SDS011;15734;50.904;6.922;2022-07-29T02:28:24;7.32;;;2.22;;
28523;SDS011;15734;50.904;6.922;2022-07-29T02:30:52;5.03;;;2.38;;
28523;SDS011;15734;50.904;6.922;2022-07-29T02:33:20;6.35;;;2.30;;
28523;SDS011;15734;50.904;6.922;2022-07-29T02:35:48;6.75;;;2.28;;
28523;SDS011;15734;50.904;6.922;2022-07-29T02:38:15;4.45;;;2.47;;
28523;SDS011;15734;50.904;6.922;2022-07-29T02:41:03;9.25;;;2.67;;
28523;SDS011;15734;50.904;6.922;2022-07-29T02:43:32;13.05;;;3.08;;
28523;SDS011;15734;50.904;6.922;2022-07-29T02:46:00;8.20;;;3.08;;
28523;SDS011;15734;50.904;6.922;2022-07-29T02:48:41;6.57;;;2.72;;
28523;SDS011;15734;50.904;6.922;2022-07-29T02:51:17;9.25;;;3.05;;
28523;SDS011;15734;50.904;6.922;2022-07-29T02:56:16;7.70;;;2.60;;
28523;SDS011;15734;50.904;6.922;2022-07-29T02:58:49;9.02;;;3.05;;
28523;SDS011;15734;50.904;6.922;2022-07-29T03:01:21;5.43;;;2.78;;
28523;SDS011;15734;50.904;6.922;2022-07-29T03:03:49;4.65;;;2.47;;
28523;SDS011;15734;50.904;6.922;2022-07-29T03:06:17;6.03;;;2.55;;
28523;SDS011;15734;50.904;6.922;2022-07-29T03:08:46;10.45;;;2.75;;
28523;SDS011;15734;50.904;6.922;2022-07-29T03:11:12;9.27;;;2.30;;
28523;SDS011;15734;50.904;6.922;2022-07-29T03:13:38;3.47;;;2.25;;
28523;SDS011;15734;50.904;6.922;2022-07-29T03:16:05;5.20;;;1.63;;
28523;SDS011;15734;50.904;6.922;2022-07-29T03:18:31;5.97;;;1.90;;
28523;SDS011;15734;50.904;6.922;2022-07-29T03:20:57;9.95;;;2.20;;
28523;SDS011;15734;50.904;6.922;2022-07-29T03:23:22;7.28;;;2.10;;
28523;SDS011;15734;50.904;6.922;2022-07-29T03:25:51;7.80;;;2.33;;
28523;SDS011;15734;50.904;6.922;2022-07-29T03:28:17;8.02;;;1.63;;
28523;SDS011;15734;50.904;6.922;2022-07-29T03:30:43;4.32;;;1.90;;
28523;SDS011;15734;50.904;6.922;2022-07-29T03:33:09;9.93;;;2.38;;
28523;SDS011;15734;50.904;6.922;2022-07-29T03:35:35;7.65;;;2.35;;
28523;SDS011;15734;50.904;6.922;2022-07-29T03:38:00;6.50;;;1.98;;
28523;SDS011;15734;50.904;6.922;2022-07-29T03:40:27;4.82;;;1.70;;
28523;SDS011;15734;50.904;6.922;2022-07-29T03:45:26;4.97;;;2.05;;
28523;SDS011;15734;50.904;6.922;2022-07-29T03:47:56;7.15;;;2.17;;
28523;SDS011;15734;50.904;6.922;2022-07-29T03:50:24;12.35;;;2.13;;
28523;SDS011;15734;50.904;6.922;2022-07-29T03:52:50;6.90;;;2.10;;
28523;SDS011;15734;50.904;6.922;2022-07-29T03:55:16;5.53;;;1.75;;
28523;SDS011;15734;50.904;6.922;2022-07-29T03:57:42;10.40;;;1.85;;
28523;SDS011;15734;50.904;6.922;2022-07-29T04:00:09;5.53;;;1.70;;
28523;SDS011;15734;50.904;6.922;2022-07-29T04:02:35;10.18;;;2.40;;
28523;SDS011;15734;50.904;6.922;2022-07-29T04:05:01;4.18;;;1.67;;
28523;SDS011;15734;50.904;6.922;2022-07-29T04:07:27;5.45;;;2.40;;
28523;SDS011;15734;50.904;6.922;2022-07-29T04:09:53;5.20;;;2.00;;
28523;SDS011;15734;50.904;6.922;2022-07-29T04:12:19;3.03;;;1.75;;
28523;SDS011;15734;50.904;6.922;2022-07-29T04:14:45;8.00;;;2.50;;
28523;SDS011;15734;50.904;6.922;2022-07-29T04:17:11;7.18;;;2.17;;
28523;SDS011;15734;50.904;6.922;2022-07-29T04:19:37;7.88;;;2.53;;
28523;SDS011;15734;50.904;6.922;2022-07-29T04:22:02;10.32;;;2.38;;
28523;SDS011;15734;50.904;6.922;2022-07-29T04:24:28;6.75;;;2.65;;
28523;SDS011;15734;50.904;6.922;2022-07-29T04:26:53;12.00;;;2.60;;
28523;SDS011;15734;50.904;6.922;2022-07-29T04:29:19;5.95;;;1.58;;
28523;SDS011;15734;50.904;6.922;2022-07-29T04:31:45;3.92;;;1.92;;
28523;SDS011;15734;50.904;6.922;2022-07-29T04:34:11;6.60;;;2.08;;
28523;SDS011;15734;50.904;6.922;2022-07-29T04:36:36;9.82;;;2.65;;
28523;SDS011;15734;50.904;6.922;2022-07-29T04:39:02;7.38;;;2.67;;
28523;SDS011;15734;50.904;6.922;2022-07-29T04:41:28;6.03;;;1.77;;
28523;SDS011;15734;50.904;6.922;2022-07-29T04:43:53;7.30;;;2.10;;
28523;SDS011;15734;50.904;6.922;2022-07-29T04:46:19;11.57;;;2.30;;
28523;SDS011;15734;50.904;6.922;2022-07-29T04:48:46;9.40;;;3.20;;
28523;SDS011;15734;50.904;6.922;2022-07-29T04:51:12;5.65;;;2.05;;
28523;SDS011;15734;50.904;6.922;2022-07-29T04:53:38;8.25;;;2.40;;
28523;SDS011;15734;50.904;6.922;2022-07-29T04:56:04;9.70;;;2.28;;
28523;SDS011;15734;50.904;6.922;2022-07-29T04:58:30;9.55;;;2.47;;
28523;SDS011;15734;50.904;6.922;2022-07-29T05:00:56;12.23;;;2.08;;
28523;SDS011;15734;50.904;6.922;2022-07-29T05:03:21;6.00;;;1.67;;
28523;SDS011;15734;50.904;6.922;2022-07-29T05:05:47;6.95;;;2.50;;
28523;SDS011;15734;50.904;6.922;2022-07-29T05:08:13;7.80;;;2.40;;
28523;SDS011;15734;50.904;6.922;2022-07-29T05:10:38;10.88;;;2.20;;
28523;SDS011;15734;50.904;6.922;2022-07-29T05:13:04;13.27;;;2.30;;
28523;SDS011;15734;50.904;6.922;2022-07-29T05:15:31;9.95;;;2.53;;
28523;SDS011;15734;50.904;6.922;2022-07-29T05:17:57;14.52;;;2.25;;
28523;SDS011;15734;50.904;6.922;2022-07-29T05:20:23;4.13;;;1.67;;
28523;SDS011;15734;50.904;6.922;2022-07-29T05:22:53;5.43;;;1.83;;
28523;SDS011;15734;50.904;6.922;2022-07-29T05:25:22;8.25;;;2.25;;
28523;SDS011;15734;50.904;6.922;2022-07-29T05:27:48;5.47;;;2.33;;
28523;SDS011;15734;50.904;6.922;2022-07-29T05:30:14;8.15;;;2.60;;
28523;SDS011;15734;50.904;6.922;2022-07-29T05:32:39;9.38;;;2.40;;
28523;SDS011;15734;50.904;6.922;2022-07-29T05:35:05;5.38;;;1.73;;
28523;SDS011;15734;50.904;6.922;2022-07-29T05:37:31;8.20;;;1.90;;
28523;SDS011;15734;50.904;6.922;2022-07-29T05:39:56;6.95;;;1.50;;
28523;SDS011;15734;50.904;6.922;2022-07-29T05:42:22;5.57;;;1.73;;
28523;SDS011;15734;50.904;6.922;2022-07-29T05:44:48;8.57;;;2.30;;
28523;SDS011;15734;50.904;6.922;2022-07-29T05:47:14;7.55;;;2.60;;
28523;SDS011;15734;50.904;6.922;2022-07-29T05:49:39;5.88;;;2.47;;
28523;SDS011;15734;50.904;6.922;2022-07-29T05:52:05;9.60;;;2.45;;
28523;SDS011;15734;50.904;6.922;2022-07-29T05:54:30;8.93;;;2.40;;
28523;SDS011;15734;50.904;6.922;2022-07-29T05:56:56;4.07;;;1.80;;
28523;SDS011;15734;50.904;6.922;2022-07-29T05:59:21;8.82;;;2.33;;
28523;SDS011;15734;50.904;6.922;2022-07-29T06:01:47;9.15;;;2.50;;
28523;SDS011;15734;50.904;6.922;2022-07-29T06:04:13;5.78;;;2.05;;
28523;SDS011;15734;50.904;6.922;2022-07-29T06:06:38;8.93;;;2.25;;
28523;SDS011;15734;50.904;6.922;2022-07-29T06:09:04;8.77;;;2.25;;
28523;SDS011;15734;50.904;6.922;2022-07-29T06:11:29;7.38;;;2.20;;
28523;SDS011;15734;50.904;6.922;2022-07-29T06:13:55;11.85;;;2.85;;
28523;SDS011;15734;50.904;6.922;2022-07-29T06:16:20;7.25;;;2.08;;
28523;SDS011;15734;50.904;6.922;2022-07-29T06:18:46;10.43;;;2.90;;
28523;SDS011;15734;50.904;6.922;2022-07-29T06:21:11;8.02;;;2.42;;
28523;SDS011;15734;50.904;6.922;2022-07-29T06:23:37;8.98;;;2.40;;
28523;SDS011;15734;50.904;6.922;2022-07-29T06:26:04;9.57;;;2.72;;
28523;SDS011;15734;50.904;6.922;2022-07-29T06:28:30;8.70;;;3.03;;
28523;SDS011;15734;50.904;6.922;2022-07-29T06:30:56;11.57;;;2.42;;
28523;SDS011;15734;50.904;6.922;2022-07-29T06:33:21;9.93;;;2.95;;
28523;SDS011;15734;50.904;6.922;2022-07-29T06:35:47;7.75;;;2.30;;
28523;SDS011;15734;50.904;6.922;2022-07-29T06:38:13;7.95;;;2.60;;
28523;SDS011;15734;50.904;6.922;2022-07-29T06:40:43;7.90;;;2.30;;
28523;SDS011;15734;50.904;6.922;2022-07-29T06:43:28;5.57;;;2.55;;
28523;SDS011;15734;50.904;6.922;2022-07-29T06:45:56;10.20;;;3.08;;
28523;SDS011;15734;50.904;6.922;2022-07-29T06:48:23;8.48;;;2.20;;
28523;SDS011;15734;50.904;6.922;2022-07-29T06:50:48;8.73;;;2.50;;
28523;SDS011;15734;50.904;6.922;2022-07-29T06:53:14;10.10;;;2.83;;
28523;SDS011;15734;50.904;6.922;2022-07-29T06:55:40;13.05;;;3.45;;
28523;SDS011;15734;50.904;6.922;2022-07-29T06:58:05;12.73;;;3.13;;
28523;SDS011;15734;50.904;6.922;2022-07-29T07:00:32;14.18;;;2.95;;
28523;SDS011;15734;50.904;6.922;2022-07-29T07:02:58;8.77;;;2.90;;
28523;SDS011;15734;50.904;6.922;2022-07-29T07:05:23;8.60;;;3.50;;
28523;SDS011;15734;50.904;6.922;2022-07-29T07:07:49;7.53;;;3.30;;
28523;SDS011;15734;50.904;6.922;2022-07-29T07:10:14;7.78;;;3.63;;
28523;SDS011;15734;50.904;6.922;2022-07-29T07:12:40;14.40;;;3.92;;
28523;SDS011;15734;50.904;6.922;2022-07-29T07:15:06;9.77;;;4.15;;
28523;SDS011;15734;50.904;6.922;2022-07-29T07:17:31;10.77;;;3.63;;
28523;SDS011;15734;50.904;6.922;2022-07-29T07:19:57;8.23;;;3.53;;
28523;SDS011;15734;50.904;6.922;2022-07-29T07:22:22;12.55;;;3.78;;
28523;SDS011;15734;50.904;6.922;2022-07-29T07:24:48;17.88;;;4.00;;
28523;SDS011;15734;50.904;6.922;2022-07-29T07:27:13;12.95;;;4.57;;
28523;SDS011;15734;50.904;6.922;2022-07-29T07:29:39;22.75;;;4.95;;
28523;SDS011;15734;50.904;6.922;2022-07-29T07:32:06;18.85;;;4.75;;
28523;SDS011;15734;50.904;6.922;2022-07-29T07:34:32;12.38;;;4.25;;
28523;SDS011;15734;50.904;6.922;2022-07-29T07:36:57;13.27;;;3.80;;
28523;SDS011;15734;50.904;6.922;2022-07-29T07:39:23;13.85;;;4.05;;
28523;SDS011;15734;50.904;6.922;2022-07-29T07:41:48;8.63;;;3.88;;
28523;SDS011;15734;50.904;6.922;2022-07-29T07:44:14;15.48;;;4.45;;
28523;SDS011;15734;50.904;6.922;2022-07-29T07:46:40;20.45;;;4.28;;
28523;SDS011;15734;50.904;6.922;2022-07-29T07:49:05;10.60;;;4.70;;
28523;SDS011;15734;50.904;6.922;2022-07-29T07:51:31;10.85;;;4.07;;
28523;SDS011;15734;50.904;6.922;2022-07-29T07:53:56;16.92;;;4.03;;
28523;SDS011;15734;50.904;6.922;2022-07-29T07:56:22;7.88;;;4.00;;
28523;SDS011;15734;50.904;6.922;2022-07-29T07:58:47;11.10;;;4.82;;
28523;SDS011;15734;50.904;6.922;2022-07-29T08:01:13;11.07;;;5.25;;
28523;SDS011;15734;50.904;6.922;2022-07-29T08:03:38;13.82;;;4.90;;
28523;SDS011;15734;50.904;6.922;2022-07-29T08:06:04;8.63;;;4.20;;
28523;SDS011;15734;50.904;6.922;2022-07-29T08:08:29;13.38;;;4.70;;
28523;SDS011;15734;50.904;6.922;2022-07-29T08:10:55;14.85;;;5.15;;
28523;SDS011;15734;50.904;6.922;2022-07-29T08:13:22;13.43;;;4.60;;
28523;SDS011;15734;50.904;6.922;2022-07-29T08:15:52;7.80;;;4.90;;
28523;SDS011;15734;50.904;6.922;2022-07-29T08:18:25;9.98;;;4.68;;
28523;SDS011;15734;50.904;6.922;2022-07-29T08:20:54;13.45;;;4.65;;
28523;SDS011;15734;50.904;6.922;2022-07-29T08:23:20;11.43;;;5.10;;
28523;SDS011;15734;50.904;6.922;2022-07-29T08:25:46;9.98;;;4.30;;
28523;SDS011;15734;50.904;6.922;2022-07-29T08:28:11;11.13;;;5.40;;
28523;SDS011;15734;50.904;6.922;2022-07-29T08:30:37;12.10;;;5.05;;
28523;SDS011;15734;50.904;6.922;2022-07-29T08:33:03;11.77;;;5.20;;
28523;SDS011;15734;50.904;6.922;2022-07-29T08:35:28;7.93;;;4.80;;
28523;SDS011;15734;50.904;6.922;2022-07-29T08:37:54;16.88;;;5.80;;
28523;SDS011;15734;50.904;6.922;2022-07-29T08:40:21;11.18;;;5.13;;
28523;SDS011;15734;50.904;6.922;2022-07-29T08:42:48;7.47;;;4.88;;
28523;SDS011;15734;50.904;6.922;2022-07-29T08:45:14;8.50;;;4.38;;
28523;SDS011;15734;50.904;6.922;2022-07-29T08:47:40;12.18;;;5.30;;
28523;SDS011;15734;50.904;6.922;2022-07-29T08:50:07;13.07;;;5.30;;
28523;SDS011;15734;50.904;6.922;2022-07-29T08:52:35;8.77;;;4.85;;
28523;SDS011;15734;50.904;6.922;2022-07-29T08:55:03;13.50;;;6.43;;
28523;SDS011;15734;50.904;6.922;2022-07-29T08:57:33;16.95;;;6.55;;
28523;SDS011;15734;50.904;6.922;2022-07-29T08:59:59;9.93;;;5.75;;
28523;SDS011;15734;50.904;6.922;2022-07-29T09:02:26;17.83;;;6.90;;
28523;SDS011;15734;50.904;6.922;2022-07-29T09:04:54;16.17;;;6.43;;
28523;SDS011;15734;50.904;6.922;2022-07-29T09:07:22;10.43;;;5.38;;
28523;SDS011;15734;50.904;6.922;2022-07-29T09:09:48;13.68;;;5.57;;
28523;SDS011;15734;50.904;6.922;2022-07-29T09:12:14;9.68;;;5.45;;
28523;SDS011;15734;50.904;6.922;2022-07-29T09:14:40;13.93;;;4.95;;
28523;SDS011;15734;50.904;6.922;2022-07-29T09:17:06;10.38;;;5.10;;
28523;SDS011;15734;50.904;6.922;2022-07-29T09:19:36;10.43;;;4.70;;
28523;SDS011;15734;50.904;6.922;2022-07-29T09:22:04;16.35;;;4.28;;
28523;SDS011;15734;50.904;6.922;2022-07-29T09:27:22;9.10;;;4.68;;
28523;SDS011;15734;50.904;6.922;2022-07-29T09:32:29;11.27;;;4.70;;
28523;SDS011;15734;50.904;6.922;2022-07-29T09:37:43;8.38;;;4.63;;
28523;SDS011;15734;50.904;6.922;2022-07-29T09:42:40;13.02;;;5.30;;
28523;SDS011;15734;50.904;6.922;2022-07-29T09:45:06;9.95;;;4.80;;
28523;SDS011;15734;50.904;6.922;2022-07-29T09:47:42;13.88;;;5.45;;
28523;SDS011;15734;50.904;6.922;2022-07-29T09:50:14;13.25;;;5.22;;
28523;SDS011;15734;50.904;6.922;2022-07-29T09:52:49;10.55;;;4.55;;
28523;SDS011;15734;50.904;6.922;2022-07-29T09:55:16;11.93;;;4.25;;
28523;SDS011;15734;50.904;6.922;2022-07-29T09:57:42;8.60;;;4.05;;
28523;SDS011;15734;50.904;6.922;2022-07-29T10:00:10;7.22;;;3.53;;
28523;SDS011;15734;50.904;6.922;2022-07-29T10:02:42;12.07;;;3.63;;
28523;SDS011;15734;50.904;6.922;2022-07-29T10:05:19;9.65;;;4.20;;
28523;SDS011;15734;50.904;6.922;2022-07-29T10:07:54;9.27;;;3.75;;
28523;SDS011;15734;50.904;6.922;2022-07-29T10:10:24;6.22;;;2.83;;
28523;SDS011;15734;50.904;6.922;2022-07-29T10:12:58;18.98;;;3.78;;
28523;SDS011;15734;50.904;6.922;2022-07-29T10:15:26;8.65;;;3.75;;
28523;SDS011;15734;50.904;6.922;2022-07-29T10:17:54;13.25;;;3.25;;
28523;SDS011;15734;50.904;6.922;2022-07-29T10:20:21;7.07;;;2.95;;
28523;SDS011;15734;50.904;6.922;2022-07-29T10:22:48;9.95;;;3.10;;
28523;SDS011;15734;50.904;6.922;2022-07-29T10:25:15;11.57;;;2.92;;
28523;SDS011;15734;50.904;6.922;2022-07-29T10:27:41;9.00;;;2.85;;
28523;SDS011;15734;50.904;6.922;2022-07-29T10:30:08;8.43;;;2.67;;
28523;SDS011;15734;50.904;6.922;2022-07-29T10:44:06;13.38;;;4.32;;
28523;SDS011;15734;50.904;6.922;2022-07-29T10:46:38;10.73;;;3.25;;
28523;SDS011;15734;50.904;6.922;2022-07-29T10:49:10;10.15;;;3.08;;
28523;SDS011;15734;50.904;6.922;2022-07-29T10:51:52;10.85;;;3.40;;
28523;SDS011;15734;50.904;6.922;2022-07-29T10:59:39;8.52;;;3.70;;
28523;SDS011;15734;50.904;6.922;2022-07-29T11:02:48;8.23;;;4.32;;
28523;SDS011;15734;50.904;6.922;2022-07-29T11:05:18;7.88;;;3.33;;
28523;SDS011;15734;50.904;6.922;2022-07-29T11:10:39;10.50;;;3.10;;
28523;SDS011;15734;50.904;6.922;2022-07-29T11:13:05;7.03;;;3.67;;
28523;SDS011;15734;50.904;6.922;2022-07-29T11:15:51;8.02;;;3.15;;
28523;SDS011;15734;50.904;6.922;2022-07-29T11:18:22;13.13;;;2.95;;
28523;SDS011;15734;50.904;6.922;2022-07-29T11:20:49;5.82;;;2.85;;
28523;SDS011;15734;50.904;6.922;2022-07-29T11:31:16;5.68;;;2.45;;
28523;SDS011;15734;50.904;6.922;2022-07-29T11:33:56;5.32;;;2.97;;
28523;SDS011;15734;50.904;6.922;2022-07-29T11:36:22;10.80;;;3.13;;
28523;SDS011;15734;50.904;6.922;2022-07-29T11:38:48;8.00;;;2.97;;
28523;SDS011;15734;50.904;6.922;2022-07-29T11:41:20;6.60;;;2.83;;
28523;SDS011;15734;50.904;6.922;2022-07-29T11:43:54;7.18;;;2.50;;
28523;SDS011;15734;50.904;6.922;2022-07-29T11:49:21;9.27;;;2.53;;
28523;SDS011;15734;50.904;6.922;2022-07-29T11:51:52;14.07;;;3.28;;
28523;SDS011;15734;50.904;6.922;2022-07-29T11:54:26;5.55;;;3.00;;
28523;SDS011;15734;50.904;6.922;2022-07-29T11:56:56;9.02;;;2.50;;
28523;SDS011;15734;50.904;6.922;2022-07-29T11:59:23;9.25;;;2.78;;
28523;SDS011;15734;50.904;6.922;2022-07-29T12:01:53;6.55;;;2.33;;
28523;SDS011;15734;50.904;6.922;2022-07-29T12:04:19;5.72;;;2.72;;
28523;SDS011;15734;50.904;6.922;2022-07-29T12:06:49;4.57;;;3.00;;
28523;SDS011;15734;50.904;6.922;2022-07-29T12:09:20;5.15;;;3.15;;
28523;SDS011;15734;50.904;6.922;2022-07-29T12:11:47;5.82;;;2.55;;
28523;SDS011;15734;50.904;6.922;2022-07-29T12:14:29;5.22;;;2.90;;
28523;SDS011;15734;50.904;6.922;2022-07-29T12:16:56;5.68;;;2.42;;
28523;SDS011;15734;50.904;6.922;2022-07-29T12:19:22;5.13;;;2.50;;
28523;SDS011;15734;50.904;6.922;2022-07-29T12:21:51;6.05;;;2.20;;
28523;SDS011;15734;50.904;6.922;2022-07-29T12:24:20;5.55;;;2.60;;
28523;SDS011;15734;50.904;6.922;2022-07-29T12:26:50;9.32;;;2.38;;
28523;SDS011;15734;50.904;6.922;2022-07-29T12:29:22;14.27;;;2.80;;
28523;SDS011;15734;50.904;6.922;2022-07-29T12:31:52;5.95;;;2.17;;
28523;SDS011;15734;50.904;6.922;2022-07-29T12:34:19;6.07;;;2.55;;
28523;SDS011;15734;50.904;6.922;2022-07-29T12:36:47;5.78;;;2.33;;
28523;SDS011;15734;50.904;6.922;2022-07-29T12:39:14;7.40;;;2.47;;
28523;SDS011;15734;50.904;6.922;2022-07-29T12:41:41;3.78;;;1.95;;
28523;SDS011;15734;50.904;6.922;2022-07-29T12:44:07;5.43;;;2.20;;
28523;SDS011;15734;50.904;6.922;2022-07-29T12:46:33;10.23;;;2.10;;
28523;SDS011;15734;50.904;6.922;2022-07-29T12:48:59;10.13;;;2.33;;
28523;SDS011;15734;50.904;6.922;2022-07-29T12:51:31;7.22;;;2.15;;
28523;SDS011;15734;50.904;6.922;2022-07-29T12:54:09;9.32;;;2.50;;
28523;SDS011;15734;50.904;6.922;2022-07-29T12:56:37;6.38;;;1.70;;
28523;SDS011;15734;50.904;6.922;2022-07-29T13:01:42;7.32;;;2.30;;
28523;SDS011;15734;50.904;6.922;2022-07-29T13:04:08;7.95;;;2.22;;
28523;SDS011;15734;50.904;6.922;2022-07-29T13:09:08;2.60;;;1.60;;
28523;SDS011;15734;50.904;6.922;2022-07-29T13:11:35;7.53;;;2.78;;
28523;SDS011;15734;50.904;6.922;2022-07-29T13:14:06;6.80;;;2.00;;
28523;SDS011;15734;50.904;6.922;2022-07-29T13:16:33;7.65;;;1.90;;
28523;SDS011;15734;50.904;6.922;2022-07-29T13:19:06;7.57;;;2.28;;
28523;SDS011;15734;50.904;6.922;2022-07-29T13:21:36;9.45;;;2.00;;
28523;SDS011;15734;50.904;6.922;2022-07-29T13:24:03;12.57;;;2.08;;
28523;SDS011;15734;50.904;6.922;2022-07-29T13:26:32;3.58;;;1.80;;
28523;SDS011;15734;50.904;6.922;2022-07-29T13:28:57;4.05;;;1.80;;
28523;SDS011;15734;50.904;6.922;2022-07-29T13:31:23;12.02;;;2.25;;
28523;SDS011;15734;50.904;6.922;2022-07-29T13:33:49;7.45;;;2.45;;
28523;SDS011;15734;50.904;6.922;2022-07-29T13:36:15;5.53;;;2.33;;
28523;SDS011;15734;50.904;6.922;2022-07-29T13:38:40;6.05;;;2.67;;
28523;SDS011;15734;50.904;6.922;2022-07-29T13:41:06;4.85;;;2.50;;
28523;SDS011;15734;50.904;6.922;2022-07-29T13:43:31;7.55;;;2.88;;
28523;SDS011;15734;50.904;6.922;2022-07-29T13:45:57;5.22;;;2.65;;
28523;SDS011;15734;50.904;6.922;2022-07-29T13:48:22;6.38;;;3.13;;
28523;SDS011;15734;50.904;6.922;2022-07-29T13:50:48;7.88;;;3.50;;
28523;SDS011;15734;50.904;6.922;2022-07-29T13:53:13;6.18;;;2.80;;
28523;SDS011;15734;50.904;6.922;2022-07-29T13:55:39;8.27;;;2.78;;
28523;SDS011;15734;50.904;6.922;2022-07-29T13:58:05;12.60;;;3.58;;
28523;SDS011;15734;50.904;6.922;2022-07-29T14:00:30;9.02;;;3.03;;
28523;SDS011;15734;50.904;6.922;2022-07-29T14:02:56;5.90;;;2.97;;
28523;SDS011;15734;50.904;6.922;2022-07-29T14:05:21;7.65;;;2.60;;
28523;SDS011;15734;50.904;6.922;2022-07-29T14:07:47;7.07;;;3.17;;
28523;SDS011;15734;50.904;6.922;2022-07-29T14:10:13;8.23;;;3.17;;
28523;SDS011;15734;50.904;6.922;2022-07-29T14:12:39;10.15;;;2.88;;
28523;SDS011;15734;50.904;6.922;2022-07-29T14:15:06;8.93;;;3.22;;
28523;SDS011;15734;50.904;6.922;2022-07-29T14:17:32;5.80;;;3.15;;
28523;SDS011;15734;50.904;6.922;2022-07-29T14:19:58;6.88;;;3.30;;
28523;SDS011;15734;50.904;6.922;2022-07-29T14:22:24;10.27;;;2.85;;
28523;SDS011;15734;50.904;6.922;2022-07-29T14:24:50;7.82;;;3.58;;
28523;SDS011;15734;50.904;6.922;2022-07-29T14:27:17;9.57;;;3.88;;
28523;SDS011;15734;50.904;6.922;2022-07-29T14:29:43;11.35;;;3.22;;
28523;SDS011;15734;50.904;6.922;2022-07-29T14:32:09;7.57;;;3.60;;
28523;SDS011;15734;50.904;6.922;2022-07-29T14:34:36;13.52;;;3.45;;
28523;SDS011;15734;50.904;6.922;2022-07-29T14:37:02;12.13;;;3.42;;
28523;SDS011;15734;50.904;6.922;2022-07-29T14:39:30;10.82;;;3.53;;
28523;SDS011;15734;50.904;6.922;2022-07-29T14:41:56;11.43;;;4.20;;
28523;SDS011;15734;50.904;6.922;2022-07-29T14:44:22;13.35;;;3.88;;
28523;SDS011;15734;50.904;6.922;2022-07-29T14:46:49;10.77;;;4.28;;
28523;SDS011;15734;50.904;6.922;2022-07-29T14:49:15;13.45;;;4.40;;
28523;SDS011;15734;50.904;6.922;2022-07-29T14:51:40;8.90;;;3.63;;
28523;SDS011;15734;50.904;6.922;2022-07-29T14:54:06;9.00;;;3.78;;
28523;SDS011;15734;50.904;6.922;2022-07-29T14:56:32;7.55;;;2.92;;
28523;SDS011;15734;50.904;6.922;2022-07-29T14:58:58;7.28;;;2.95;;
28523;SDS011;15734;50.904;6.922;2022-07-29T15:01:23;7.03;;;2.97;;
28523;SDS011;15734;50.904;6.922;2022-07-29T15:03:50;8.25;;;2.95;;
28523;SDS011;15734;50.904;6.922;2022-07-29T15:06:15;7.65;;;2.65;;
28523;SDS011;15734;50.904;6.922;2022-07-29T15:08:41;7.93;;;2.80;;
28523;SDS011;15734;50.904;6.922;2022-07-29T15:11:07;5.85;;;2.25;;
28523;SDS011;15734;50.904;6.922;2022-07-29T15:13:33;6.50;;;2.67;;
28523;SDS011;15734;50.904;6.922;2022-07-29T15:15:59;5.22;;;2.78;;
28523;SDS011;15734;50.904;6.922;2022-07-29T15:18:24;4.63;;;2.35;;
28523;SDS011;15734;50.904;6.922;2022-07-29T15:20:50;6.85;;;2.20;;
28523;SDS011;15734;50.904;6.922;2022-07-29T15:23:16;3.60;;;2.17;;
28523;SDS011;15734;50.904;6.922;2022-07-29T15:25:41;7.95;;;2.28;;
28523;SDS011;15734;50.904;6.922;2022-07-29T15:28:07;4.75;;;2.72;;
28523;SDS011;15734;50.904;6.922;2022-07-29T15:30:33;3.72;;;2.10;;
28523;SDS011;15734;50.904;6.922;2022-07-29T15:33:01;7.28;;;2.42;;
28523;SDS011;15734;50.904;6.922;2022-07-29T15:35:28;4.40;;;2.40;;
28523;SDS011;15734;50.904;6.922;2022-07-29T15:37:53;5.30;;;2.17;;
28523;SDS011;15734;50.904;6.922;2022-07-29T15:40:19;6.95;;;2.17;;
28523;SDS011;15734;50.904;6.922;2022-07-29T15:42:48;4.57;;;1.90;;
28523;SDS011;15734;50.904;6.922;2022-07-29T15:45:13;6.20;;;2.10;;
28523;SDS011;15734;50.904;6.922;2022-07-29T15:47:39;5.72;;;2.35;;